sensor_id;sensor_type;location;lat;lon;timestamp;P1;durP1;ratioP1;P2;durP2;ratioP2
76552;SDS011;65395;53.168;18.156;2022-12-16T00:02:01;68.80;;;23.80;;
76552;SDS011;65395;53.168;18.156;2022-12-16T00:04:27;70.40;;;24.70;;
76552;SDS011;65395;53.168;18.156;2022-12-16T00:06:54;68.30;;;22.80;;
76552;SDS011;65395;53.168;18.156;2022-12-16T00:09:21;80.30;;;23.80;;
76552;SDS011;65395;53.168;18.156;2022-12-16T00:11:47;70.60;;;22.90;;
76552;SDS011;65395;53.168;18.156;2022-12-16T00:14:14;59.60;;;20.00;;
76552;SDS011;65395;53.168;18.156;2022-12-16T00:16:40;104.80;;;30.50;;
76552;SDS011;65395;53.168;18.156;2022-12-16T00:19:07;134.10;;;36.50;;
76552;SDS011;65395;53.168;18.156;2022-12-16T00:21:34;112.80;;;31.50;;
76552;SDS011;65395;53.168;18.156;2022-12-16T00:24:01;96.90;;;29.90;;
76552;SDS011;65395;53.168;18.156;2022-12-16T00:26:28;83.70;;;25.90;;
76552;SDS011;65395;53.168;18.156;2022-12-16T00:28:56;79.30;;;26.20;;
76552;SDS011;65395;53.168;18.156;2022-12-16T00:31:23;68.80;;;23.50;;
76552;SDS011;65395;53.168;18.156;2022-12-16T00:33:54;70.90;;;23.60;;
76552;SDS011;65395;53.168;18.156;2022-12-16T00:36:21;66.50;;;22.10;;
76552;SDS011;65395;53.168;18.156;2022-12-16T00:38:48;60.10;;;21.40;;
76552;SDS011;65395;53.168;18.156;2022-12-16T00:41:17;63.00;;;21.00;;
76552;SDS011;65395;53.168;18.156;2022-12-16T00:43:44;63.00;;;20.80;;
76552;SDS011;65395;53.168;18.156;2022-12-16T00:46:11;60.90;;;20.50;;
76552;SDS011;65395;53.168;18.156;2022-12-16T00:48:38;59.00;;;21.10;;
76552;SDS011;65395;53.168;18.156;2022-12-16T00:51:04;57.80;;;20.60;;
76552;SDS011;65395;53.168;18.156;2022-12-16T00:53:31;63.20;;;20.70;;
76552;SDS011;65395;53.168;18.156;2022-12-16T00:56:01;65.70;;;22.40;;
76552;SDS011;65395;53.168;18.156;2022-12-16T00:58:30;66.30;;;21.00;;
76552;SDS011;65395;53.168;18.156;2022-12-16T01:00:57;65.80;;;22.60;;
76552;SDS011;65395;53.168;18.156;2022-12-16T01:03:23;76.60;;;23.90;;
76552;SDS011;65395;53.168;18.156;2022-12-16T01:05:50;97.30;;;25.90;;
76552;SDS011;65395;53.168;18.156;2022-12-16T01:08:17;85.50;;;25.50;;
76552;SDS011;65395;53.168;18.156;2022-12-16T01:13:22;80.20;;;22.70;;
76552;SDS011;65395;53.168;18.156;2022-12-16T01:15:50;65.90;;;21.40;;
76552;SDS011;65395;53.168;18.156;2022-12-16T01:18:17;70.10;;;22.20;;
76552;SDS011;65395;53.168;18.156;2022-12-16T01:20:44;70.30;;;21.60;;
76552;SDS011;65395;53.168;18.156;2022-12-16T01:23:11;70.50;;;22.10;;
76552;SDS011;65395;53.168;18.156;2022-12-16T01:25:38;73.70;;;24.10;;
76552;SDS011;65395;53.168;18.156;2022-12-16T01:28:04;70.80;;;22.70;;
76552;SDS011;65395;53.168;18.156;2022-12-16T01:30:31;58.90;;;21.70;;
76552;SDS011;65395;53.168;18.156;2022-12-16T01:32:58;63.70;;;20.60;;
76552;SDS011;65395;53.168;18.156;2022-12-16T01:35:25;60.80;;;20.70;;
76552;SDS011;65395;53.168;18.156;2022-12-16T01:37:52;63.00;;;21.20;;
76552;SDS011;65395;53.168;18.156;2022-12-16T01:40:20;65.40;;;22.00;;
76552;SDS011;65395;53.168;18.156;2022-12-16T01:42:49;67.20;;;22.80;;
76552;SDS011;65395;53.168;18.156;2022-12-16T01:45:33;65.50;;;21.90;;
76552;SDS011;65395;53.168;18.156;2022-12-16T01:48:06;72.70;;;22.50;;
76552;SDS011;65395;53.168;18.156;2022-12-16T01:50:45;70.40;;;23.20;;
76552;SDS011;65395;53.168;18.156;2022-12-16T01:53:13;73.60;;;21.00;;
76552;SDS011;65395;53.168;18.156;2022-12-16T01:55:41;68.00;;;21.00;;
76552;SDS011;65395;53.168;18.156;2022-12-16T01:58:14;93.10;;;26.50;;
76552;SDS011;65395;53.168;18.156;2022-12-16T02:00:46;95.30;;;27.80;;
76552;SDS011;65395;53.168;18.156;2022-12-16T02:03:13;84.80;;;24.90;;
76552;SDS011;65395;53.168;18.156;2022-12-16T02:05:40;79.10;;;25.20;;
76552;SDS011;65395;53.168;18.156;2022-12-16T02:08:10;82.00;;;24.20;;
76552;SDS011;65395;53.168;18.156;2022-12-16T02:13:55;80.60;;;24.00;;
76552;SDS011;65395;53.168;18.156;2022-12-16T02:16:44;73.10;;;24.40;;
76552;SDS011;65395;53.168;18.156;2022-12-16T02:22:23;60.30;;;20.20;;
76552;SDS011;65395;53.168;18.156;2022-12-16T02:28:10;69.80;;;22.40;;
76552;SDS011;65395;53.168;18.156;2022-12-16T02:31:05;67.40;;;22.20;;
76552;SDS011;65395;53.168;18.156;2022-12-16T02:33:50;78.40;;;22.10;;
76552;SDS011;65395;53.168;18.156;2022-12-16T02:36:27;90.00;;;24.10;;
76552;SDS011;65395;53.168;18.156;2022-12-16T02:39:11;85.00;;;25.20;;
76552;SDS011;65395;53.168;18.156;2022-12-16T02:41:47;102.70;;;28.10;;
76552;SDS011;65395;53.168;18.156;2022-12-16T02:44:18;104.60;;;29.80;;
76552;SDS011;65395;53.168;18.156;2022-12-16T02:46:52;91.70;;;26.70;;
76552;SDS011;65395;53.168;18.156;2022-12-16T02:49:43;88.60;;;26.80;;
76552;SDS011;65395;53.168;18.156;2022-12-16T02:52:10;81.80;;;23.90;;
76552;SDS011;65395;53.168;18.156;2022-12-16T02:54:39;82.90;;;24.00;;
76552;SDS011;65395;53.168;18.156;2022-12-16T02:57:12;79.30;;;24.70;;
76552;SDS011;65395;53.168;18.156;2022-12-16T03:00:06;79.80;;;25.20;;
76552;SDS011;65395;53.168;18.156;2022-12-16T03:05:29;79.00;;;23.60;;
76552;SDS011;65395;53.168;18.156;2022-12-16T03:08:01;69.60;;;20.50;;
76552;SDS011;65395;53.168;18.156;2022-12-16T03:10:34;66.60;;;22.30;;
76552;SDS011;65395;53.168;18.156;2022-12-16T03:13:06;67.80;;;21.10;;
76552;SDS011;65395;53.168;18.156;2022-12-16T03:15:36;67.40;;;20.70;;
76552;SDS011;65395;53.168;18.156;2022-12-16T03:18:06;63.50;;;21.50;;
76552;SDS011;65395;53.168;18.156;2022-12-16T03:20:38;64.90;;;20.70;;
76552;SDS011;65395;53.168;18.156;2022-12-16T03:23:13;66.30;;;21.80;;
76552;SDS011;65395;53.168;18.156;2022-12-16T03:25:43;67.30;;;22.20;;
76552;SDS011;65395;53.168;18.156;2022-12-16T03:31:00;57.70;;;19.60;;
76552;SDS011;65395;53.168;18.156;2022-12-16T03:33:37;80.90;;;25.30;;
76552;SDS011;65395;53.168;18.156;2022-12-16T03:36:09;81.50;;;24.30;;
76552;SDS011;65395;53.168;18.156;2022-12-16T03:38:41;77.40;;;23.00;;
76552;SDS011;65395;53.168;18.156;2022-12-16T03:41:12;85.20;;;24.50;;
76552;SDS011;65395;53.168;18.156;2022-12-16T03:43:40;78.30;;;23.00;;
76552;SDS011;65395;53.168;18.156;2022-12-16T03:46:07;73.80;;;23.00;;
76552;SDS011;65395;53.168;18.156;2022-12-16T03:48:35;69.10;;;23.00;;
76552;SDS011;65395;53.168;18.156;2022-12-16T03:51:10;67.50;;;21.70;;
76552;SDS011;65395;53.168;18.156;2022-12-16T03:53:37;71.40;;;21.70;;
76552;SDS011;65395;53.168;18.156;2022-12-16T03:56:03;71.80;;;21.40;;
76552;SDS011;65395;53.168;18.156;2022-12-16T03:58:30;72.20;;;22.80;;
76552;SDS011;65395;53.168;18.156;2022-12-16T04:00:57;63.00;;;20.60;;
76552;SDS011;65395;53.168;18.156;2022-12-16T04:03:23;64.20;;;20.60;;
76552;SDS011;65395;53.168;18.156;2022-12-16T04:05:52;67.60;;;21.00;;
76552;SDS011;65395;53.168;18.156;2022-12-16T04:08:18;57.90;;;19.20;;
76552;SDS011;65395;53.168;18.156;2022-12-16T04:10:45;65.60;;;20.20;;
76552;SDS011;65395;53.168;18.156;2022-12-16T04:13:21;65.30;;;21.70;;
76552;SDS011;65395;53.168;18.156;2022-12-16T04:15:58;62.20;;;20.60;;
76552;SDS011;65395;53.168;18.156;2022-12-16T04:18:35;67.20;;;20.70;;
76552;SDS011;65395;53.168;18.156;2022-12-16T04:21:14;56.60;;;18.60;;
76552;SDS011;65395;53.168;18.156;2022-12-16T04:23:51;75.60;;;22.70;;
76552;SDS011;65395;53.168;18.156;2022-12-16T04:26:32;85.40;;;24.20;;
76552;SDS011;65395;53.168;18.156;2022-12-16T04:29:21;79.80;;;23.60;;
76552;SDS011;65395;53.168;18.156;2022-12-16T04:31:49;72.00;;;21.50;;
76552;SDS011;65395;53.168;18.156;2022-12-16T04:34:16;72.30;;;22.90;;
76552;SDS011;65395;53.168;18.156;2022-12-16T04:36:52;71.10;;;20.80;;
76552;SDS011;65395;53.168;18.156;2022-12-16T04:39:32;74.30;;;21.50;;
76552;SDS011;65395;53.168;18.156;2022-12-16T04:42:09;70.10;;;21.50;;
76552;SDS011;65395;53.168;18.156;2022-12-16T04:44:45;74.60;;;21.60;;
76552;SDS011;65395;53.168;18.156;2022-12-16T04:47:22;76.20;;;21.80;;
76552;SDS011;65395;53.168;18.156;2022-12-16T04:49:58;71.30;;;21.50;;
76552;SDS011;65395;53.168;18.156;2022-12-16T04:52:35;75.10;;;22.50;;
76552;SDS011;65395;53.168;18.156;2022-12-16T04:55:12;65.50;;;20.30;;
76552;SDS011;65395;53.168;18.156;2022-12-16T04:57:56;62.00;;;20.20;;
76552;SDS011;65395;53.168;18.156;2022-12-16T05:00:34;64.80;;;19.70;;
76552;SDS011;65395;53.168;18.156;2022-12-16T05:03:11;59.00;;;20.60;;
76552;SDS011;65395;53.168;18.156;2022-12-16T05:05:47;67.50;;;19.70;;
76552;SDS011;65395;53.168;18.156;2022-12-16T05:08:24;64.10;;;19.30;;
76552;SDS011;65395;53.168;18.156;2022-12-16T05:11:01;71.80;;;21.40;;
76552;SDS011;65395;53.168;18.156;2022-12-16T05:13:38;73.20;;;21.00;;
76552;SDS011;65395;53.168;18.156;2022-12-16T05:16:14;64.50;;;20.40;;
76552;SDS011;65395;53.168;18.156;2022-12-16T05:18:51;81.80;;;22.40;;
76552;SDS011;65395;53.168;18.156;2022-12-16T05:21:27;86.00;;;22.60;;
76552;SDS011;65395;53.168;18.156;2022-12-16T05:24:04;70.90;;;20.90;;
76552;SDS011;65395;53.168;18.156;2022-12-16T05:26:41;78.30;;;23.60;;
76552;SDS011;65395;53.168;18.156;2022-12-16T05:29:18;76.30;;;23.60;;
76552;SDS011;65395;53.168;18.156;2022-12-16T05:31:54;80.00;;;25.60;;
76552;SDS011;65395;53.168;18.156;2022-12-16T05:34:31;92.00;;;28.90;;
76552;SDS011;65395;53.168;18.156;2022-12-16T05:37:08;82.30;;;25.50;;
76552;SDS011;65395;53.168;18.156;2022-12-16T05:39:54;82.40;;;24.30;;
76552;SDS011;65395;53.168;18.156;2022-12-16T05:42:31;78.50;;;24.00;;
76552;SDS011;65395;53.168;18.156;2022-12-16T05:45:08;78.20;;;22.80;;
76552;SDS011;65395;53.168;18.156;2022-12-16T05:47:46;66.00;;;21.70;;
76552;SDS011;65395;53.168;18.156;2022-12-16T05:50:23;67.50;;;21.60;;
76552;SDS011;65395;53.168;18.156;2022-12-16T05:53:07;68.10;;;22.80;;
76552;SDS011;65395;53.168;18.156;2022-12-16T05:55:44;66.00;;;21.10;;
76552;SDS011;65395;53.168;18.156;2022-12-16T05:58:21;79.00;;;24.30;;
76552;SDS011;65395;53.168;18.156;2022-12-16T06:00:58;84.50;;;27.30;;
76552;SDS011;65395;53.168;18.156;2022-12-16T06:03:34;75.50;;;23.70;;
76552;SDS011;65395;53.168;18.156;2022-12-16T06:06:11;75.90;;;24.00;;
76552;SDS011;65395;53.168;18.156;2022-12-16T06:08:48;89.20;;;27.20;;
76552;SDS011;65395;53.168;18.156;2022-12-16T06:11:25;89.40;;;27.00;;
76552;SDS011;65395;53.168;18.156;2022-12-16T06:14:01;91.40;;;27.90;;
76552;SDS011;65395;53.168;18.156;2022-12-16T06:16:38;193.40;;;42.60;;
76552;SDS011;65395;53.168;18.156;2022-12-16T06:19:15;144.20;;;36.40;;
76552;SDS011;65395;53.168;18.156;2022-12-16T06:21:51;99.30;;;29.50;;
76552;SDS011;65395;53.168;18.156;2022-12-16T06:24:28;95.50;;;30.20;;
76552;SDS011;65395;53.168;18.156;2022-12-16T06:27:04;105.00;;;30.00;;
76552;SDS011;65395;53.168;18.156;2022-12-16T06:29:41;97.20;;;30.00;;
76552;SDS011;65395;53.168;18.156;2022-12-16T06:32:18;95.30;;;29.70;;
76552;SDS011;65395;53.168;18.156;2022-12-16T06:34:54;88.00;;;27.60;;
76552;SDS011;65395;53.168;18.156;2022-12-16T06:37:31;95.80;;;27.90;;
76552;SDS011;65395;53.168;18.156;2022-12-16T06:40:08;80.00;;;26.40;;
76552;SDS011;65395;53.168;18.156;2022-12-16T06:42:45;84.80;;;27.20;;
76552;SDS011;65395;53.168;18.156;2022-12-16T06:45:22;96.00;;;28.80;;
76552;SDS011;65395;53.168;18.156;2022-12-16T06:47:59;84.80;;;27.90;;
76552;SDS011;65395;53.168;18.156;2022-12-16T06:50:35;95.30;;;30.30;;
76552;SDS011;65395;53.168;18.156;2022-12-16T06:53:12;90.10;;;28.80;;
76552;SDS011;65395;53.168;18.156;2022-12-16T06:55:49;80.20;;;27.10;;
76552;SDS011;65395;53.168;18.156;2022-12-16T06:58:26;80.10;;;26.90;;
76552;SDS011;65395;53.168;18.156;2022-12-16T07:01:03;95.80;;;28.70;;
76552;SDS011;65395;53.168;18.156;2022-12-16T07:03:40;87.90;;;28.20;;
76552;SDS011;65395;53.168;18.156;2022-12-16T07:06:16;79.80;;;25.40;;
76552;SDS011;65395;53.168;18.156;2022-12-16T07:08:53;142.30;;;38.50;;
76552;SDS011;65395;53.168;18.156;2022-12-16T07:11:30;112.70;;;34.70;;
76552;SDS011;65395;53.168;18.156;2022-12-16T07:14:07;96.90;;;31.10;;
76552;SDS011;65395;53.168;18.156;2022-12-16T07:16:43;101.50;;;30.90;;
76552;SDS011;65395;53.168;18.156;2022-12-16T07:19:20;89.10;;;30.60;;
76552;SDS011;65395;53.168;18.156;2022-12-16T07:22:07;91.10;;;29.70;;
76552;SDS011;65395;53.168;18.156;2022-12-16T07:24:43;93.90;;;30.20;;
76552;SDS011;65395;53.168;18.156;2022-12-16T07:27:20;81.20;;;27.80;;
76552;SDS011;65395;53.168;18.156;2022-12-16T07:29:57;92.70;;;31.70;;
76552;SDS011;65395;53.168;18.156;2022-12-16T07:32:33;85.10;;;28.30;;
76552;SDS011;65395;53.168;18.156;2022-12-16T07:35:10;79.40;;;26.40;;
76552;SDS011;65395;53.168;18.156;2022-12-16T07:37:47;81.40;;;26.70;;
76552;SDS011;65395;53.168;18.156;2022-12-16T07:40:23;77.70;;;26.40;;
76552;SDS011;65395;53.168;18.156;2022-12-16T07:43:00;79.30;;;27.20;;
76552;SDS011;65395;53.168;18.156;2022-12-16T07:45:37;75.30;;;26.90;;
76552;SDS011;65395;53.168;18.156;2022-12-16T07:48:14;77.50;;;26.00;;
76552;SDS011;65395;53.168;18.156;2022-12-16T07:50:51;80.20;;;26.60;;
76552;SDS011;65395;53.168;18.156;2022-12-16T07:53:27;75.80;;;26.80;;
76552;SDS011;65395;53.168;18.156;2022-12-16T07:56:04;91.50;;;28.50;;
76552;SDS011;65395;53.168;18.156;2022-12-16T07:58:41;77.50;;;26.90;;
76552;SDS011;65395;53.168;18.156;2022-12-16T08:01:22;89.60;;;29.50;;
76552;SDS011;65395;53.168;18.156;2022-12-16T08:03:59;95.10;;;32.20;;
76552;SDS011;65395;53.168;18.156;2022-12-16T08:06:36;97.60;;;33.00;;
76552;SDS011;65395;53.168;18.156;2022-12-16T08:09:12;88.90;;;31.30;;
76552;SDS011;65395;53.168;18.156;2022-12-16T08:11:49;90.20;;;30.10;;
76552;SDS011;65395;53.168;18.156;2022-12-16T08:14:26;84.80;;;29.30;;
76552;SDS011;65395;53.168;18.156;2022-12-16T08:17:03;86.30;;;28.70;;
76552;SDS011;65395;53.168;18.156;2022-12-16T08:19:39;92.10;;;30.60;;
76552;SDS011;65395;53.168;18.156;2022-12-16T08:22:16;90.90;;;31.00;;
76552;SDS011;65395;53.168;18.156;2022-12-16T08:24:53;192.70;;;47.70;;
76552;SDS011;65395;53.168;18.156;2022-12-16T08:27:29;201.00;;;51.70;;
76552;SDS011;65395;53.168;18.156;2022-12-16T08:30:06;119.30;;;38.40;;
76552;SDS011;65395;53.168;18.156;2022-12-16T08:32:43;85.90;;;30.40;;
76552;SDS011;65395;53.168;18.156;2022-12-16T08:35:20;94.20;;;32.40;;
76552;SDS011;65395;53.168;18.156;2022-12-16T08:37:57;82.20;;;28.90;;
76552;SDS011;65395;53.168;18.156;2022-12-16T08:40:34;103.50;;;32.00;;
76552;SDS011;65395;53.168;18.156;2022-12-16T08:43:10;114.20;;;34.90;;
76552;SDS011;65395;53.168;18.156;2022-12-16T08:45:47;94.50;;;33.60;;
76552;SDS011;65395;53.168;18.156;2022-12-16T08:48:24;101.80;;;34.60;;
76552;SDS011;65395;53.168;18.156;2022-12-16T08:51:02;107.60;;;36.10;;
76552;SDS011;65395;53.168;18.156;2022-12-16T08:53:41;95.70;;;33.90;;
76552;SDS011;65395;53.168;18.156;2022-12-16T08:56:17;104.40;;;36.30;;
76552;SDS011;65395;53.168;18.156;2022-12-16T08:58:54;97.20;;;33.90;;
76552;SDS011;65395;53.168;18.156;2022-12-16T09:01:31;101.00;;;34.60;;
76552;SDS011;65395;53.168;18.156;2022-12-16T09:04:07;102.60;;;35.90;;
76552;SDS011;65395;53.168;18.156;2022-12-16T09:06:44;108.10;;;37.10;;
76552;SDS011;65395;53.168;18.156;2022-12-16T09:09:21;168.90;;;48.80;;
76552;SDS011;65395;53.168;18.156;2022-12-16T09:11:58;106.00;;;37.50;;
76552;SDS011;65395;53.168;18.156;2022-12-16T09:14:34;81.20;;;29.80;;
76552;SDS011;65395;53.168;18.156;2022-12-16T09:17:11;96.20;;;32.70;;
76552;SDS011;65395;53.168;18.156;2022-12-16T09:19:48;99.50;;;34.40;;
76552;SDS011;65395;53.168;18.156;2022-12-16T09:22:25;94.90;;;34.00;;
76552;SDS011;65395;53.168;18.156;2022-12-16T09:25:01;93.70;;;33.80;;
76552;SDS011;65395;53.168;18.156;2022-12-16T09:27:38;98.20;;;34.80;;
76552;SDS011;65395;53.168;18.156;2022-12-16T09:30:15;98.20;;;36.10;;
76552;SDS011;65395;53.168;18.156;2022-12-16T09:32:52;93.10;;;32.30;;
76552;SDS011;65395;53.168;18.156;2022-12-16T09:35:29;93.60;;;33.80;;
76552;SDS011;65395;53.168;18.156;2022-12-16T09:38:06;123.20;;;37.00;;
76552;SDS011;65395;53.168;18.156;2022-12-16T09:40:42;197.70;;;49.90;;
76552;SDS011;65395;53.168;18.156;2022-12-16T09:46:17;86.20;;;28.50;;
76552;SDS011;65395;53.168;18.156;2022-12-16T09:49:25;101.60;;;34.00;;
76552;SDS011;65395;53.168;18.156;2022-12-16T09:52:19;103.10;;;36.10;;
76552;SDS011;65395;53.168;18.156;2022-12-16T09:54:57;88.10;;;30.50;;
76552;SDS011;65395;53.168;18.156;2022-12-16T09:57:36;99.90;;;33.20;;
76552;SDS011;65395;53.168;18.156;2022-12-16T10:00:18;103.50;;;34.30;;
76552;SDS011;65395;53.168;18.156;2022-12-16T10:02:57;93.60;;;31.90;;
76552;SDS011;65395;53.168;18.156;2022-12-16T10:05:41;92.40;;;32.80;;
76552;SDS011;65395;53.168;18.156;2022-12-16T10:08:36;104.80;;;36.50;;
76552;SDS011;65395;53.168;18.156;2022-12-16T10:11:21;118.60;;;37.70;;
76552;SDS011;65395;53.168;18.156;2022-12-16T10:14:07;126.90;;;42.80;;
76552;SDS011;65395;53.168;18.156;2022-12-16T10:16:52;113.10;;;37.40;;
76552;SDS011;65395;53.168;18.156;2022-12-16T10:19:51;90.90;;;32.80;;
76552;SDS011;65395;53.168;18.156;2022-12-16T10:23:03;95.70;;;32.60;;
76552;SDS011;65395;53.168;18.156;2022-12-16T10:25:39;102.10;;;37.60;;
76552;SDS011;65395;53.168;18.156;2022-12-16T10:28:41;87.80;;;31.80;;
76552;SDS011;65395;53.168;18.156;2022-12-16T10:31:21;99.70;;;36.50;;
76552;SDS011;65395;53.168;18.156;2022-12-16T10:33:57;99.00;;;35.10;;
76552;SDS011;65395;53.168;18.156;2022-12-16T10:36:35;94.50;;;32.40;;
76552;SDS011;65395;53.168;18.156;2022-12-16T10:39:23;96.40;;;34.00;;
76552;SDS011;65395;53.168;18.156;2022-12-16T10:42:05;88.80;;;32.60;;
76552;SDS011;65395;53.168;18.156;2022-12-16T10:44:57;91.40;;;33.70;;
76552;SDS011;65395;53.168;18.156;2022-12-16T10:47:37;95.50;;;32.60;;
76552;SDS011;65395;53.168;18.156;2022-12-16T10:50:13;99.80;;;32.90;;
76552;SDS011;65395;53.168;18.156;2022-12-16T10:52:59;99.30;;;33.00;;
76552;SDS011;65395;53.168;18.156;2022-12-16T10:58:44;100.40;;;31.70;;
76552;SDS011;65395;53.168;18.156;2022-12-16T11:01:27;84.10;;;30.90;;
76552;SDS011;65395;53.168;18.156;2022-12-16T11:07:01;90.50;;;33.00;;
76552;SDS011;65395;53.168;18.156;2022-12-16T11:09:38;93.80;;;32.20;;
76552;SDS011;65395;53.168;18.156;2022-12-16T11:12:19;97.00;;;32.00;;
76552;SDS011;65395;53.168;18.156;2022-12-16T11:18:04;96.80;;;35.10;;
76552;SDS011;65395;53.168;18.156;2022-12-16T11:20:44;103.80;;;36.00;;
76552;SDS011;65395;53.168;18.156;2022-12-16T11:23:23;103.20;;;35.80;;
76552;SDS011;65395;53.168;18.156;2022-12-16T11:26:02;97.50;;;33.20;;
76552;SDS011;65395;53.168;18.156;2022-12-16T11:28:40;105.10;;;34.70;;
76552;SDS011;65395;53.168;18.156;2022-12-16T11:31:16;101.70;;;33.30;;
76552;SDS011;65395;53.168;18.156;2022-12-16T11:33:53;88.80;;;31.80;;
76552;SDS011;65395;53.168;18.156;2022-12-16T11:36:31;89.80;;;34.30;;
76552;SDS011;65395;53.168;18.156;2022-12-16T11:39:12;98.00;;;34.70;;
76552;SDS011;65395;53.168;18.156;2022-12-16T11:41:54;100.90;;;36.70;;
76552;SDS011;65395;53.168;18.156;2022-12-16T11:44:40;92.80;;;31.90;;
76552;SDS011;65395;53.168;18.156;2022-12-16T11:47:21;94.60;;;30.60;;
76552;SDS011;65395;53.168;18.156;2022-12-16T11:50:09;99.00;;;32.50;;
76552;SDS011;65395;53.168;18.156;2022-12-16T11:52:59;101.30;;;34.60;;
76552;SDS011;65395;53.168;18.156;2022-12-16T11:55:37;103.40;;;33.10;;
76552;SDS011;65395;53.168;18.156;2022-12-16T11:58:23;110.40;;;36.30;;
76552;SDS011;65395;53.168;18.156;2022-12-16T12:01:14;97.70;;;32.80;;
76552;SDS011;65395;53.168;18.156;2022-12-16T12:03:56;103.00;;;34.40;;
76552;SDS011;65395;53.168;18.156;2022-12-16T12:06:40;96.40;;;31.80;;
76552;SDS011;65395;53.168;18.156;2022-12-16T12:09:30;97.40;;;31.10;;
76552;SDS011;65395;53.168;18.156;2022-12-16T12:15:13;111.30;;;35.00;;
76552;SDS011;65395;53.168;18.156;2022-12-16T12:18:04;106.30;;;33.20;;
76552;SDS011;65395;53.168;18.156;2022-12-16T12:21:02;109.20;;;35.10;;
76552;SDS011;65395;53.168;18.156;2022-12-16T12:26:48;93.60;;;30.10;;
76552;SDS011;65395;53.168;18.156;2022-12-16T12:29:51;111.90;;;38.20;;
76552;SDS011;65395;53.168;18.156;2022-12-16T12:32:42;135.10;;;36.30;;
76552;SDS011;65395;53.168;18.156;2022-12-16T12:41:26;94.10;;;30.80;;
76552;SDS011;65395;53.168;18.156;2022-12-16T12:47:01;107.30;;;36.90;;
76552;SDS011;65395;53.168;18.156;2022-12-16T12:49:45;91.20;;;30.40;;
76552;SDS011;65395;53.168;18.156;2022-12-16T12:52:37;87.70;;;27.70;;
76552;SDS011;65395;53.168;18.156;2022-12-16T12:55:34;93.10;;;29.00;;
76552;SDS011;65395;53.168;18.156;2022-12-16T12:58:18;92.00;;;32.10;;
76552;SDS011;65395;53.168;18.156;2022-12-16T13:00:56;83.70;;;29.90;;
76552;SDS011;65395;53.168;18.156;2022-12-16T13:03:48;76.20;;;28.10;;
76552;SDS011;65395;53.168;18.156;2022-12-16T13:06:34;88.00;;;29.00;;
76552;SDS011;65395;53.168;18.156;2022-12-16T13:15:16;132.60;;;37.30;;
76552;SDS011;65395;53.168;18.156;2022-12-16T13:18:12;91.50;;;30.10;;
76552;SDS011;65395;53.168;18.156;2022-12-16T13:20:56;74.20;;;26.10;;
76552;SDS011;65395;53.168;18.156;2022-12-16T13:23:34;91.80;;;31.00;;
76552;SDS011;65395;53.168;18.156;2022-12-16T13:26:15;96.40;;;33.30;;
76552;SDS011;65395;53.168;18.156;2022-12-16T13:34:40;100.90;;;34.60;;
76552;SDS011;65395;53.168;18.156;2022-12-16T13:37:22;90.90;;;29.80;;
76552;SDS011;65395;53.168;18.156;2022-12-16T13:40:04;92.50;;;32.80;;
76552;SDS011;65395;53.168;18.156;2022-12-16T13:42:52;101.80;;;30.50;;
76552;SDS011;65395;53.168;18.156;2022-12-16T13:45:31;107.20;;;29.90;;
76552;SDS011;65395;53.168;18.156;2022-12-16T13:48:24;106.60;;;32.70;;
76552;SDS011;65395;53.168;18.156;2022-12-16T13:54:11;92.70;;;30.30;;
76552;SDS011;65395;53.168;18.156;2022-12-16T13:56:48;91.40;;;30.00;;
76552;SDS011;65395;53.168;18.156;2022-12-16T13:59:27;89.60;;;28.90;;
76552;SDS011;65395;53.168;18.156;2022-12-16T14:02:16;91.80;;;28.90;;
76552;SDS011;65395;53.168;18.156;2022-12-16T14:04:59;81.30;;;28.30;;
76552;SDS011;65395;53.168;18.156;2022-12-16T14:07:37;90.10;;;29.40;;
76552;SDS011;65395;53.168;18.156;2022-12-16T14:13:13;111.80;;;30.50;;
76552;SDS011;65395;53.168;18.156;2022-12-16T14:19:24;84.10;;;27.80;;
76552;SDS011;65395;53.168;18.156;2022-12-16T14:25:16;92.70;;;28.40;;
76552;SDS011;65395;53.168;18.156;2022-12-16T14:27:55;82.00;;;26.50;;
76552;SDS011;65395;53.168;18.156;2022-12-16T14:30:33;85.10;;;25.40;;
76552;SDS011;65395;53.168;18.156;2022-12-16T14:33:14;98.30;;;30.40;;
76552;SDS011;65395;53.168;18.156;2022-12-16T14:35:53;81.50;;;23.90;;
76552;SDS011;65395;53.168;18.156;2022-12-16T14:38:30;91.70;;;29.80;;
76552;SDS011;65395;53.168;18.156;2022-12-16T14:41:09;100.40;;;31.20;;
76552;SDS011;65395;53.168;18.156;2022-12-16T14:43:47;92.60;;;27.40;;
76552;SDS011;65395;53.168;18.156;2022-12-16T14:46:26;108.50;;;35.80;;
76552;SDS011;65395;53.168;18.156;2022-12-16T14:49:11;95.90;;;29.80;;
76552;SDS011;65395;53.168;18.156;2022-12-16T14:51:59;89.40;;;28.10;;
76552;SDS011;65395;53.168;18.156;2022-12-16T14:54:37;95.20;;;28.50;;
76552;SDS011;65395;53.168;18.156;2022-12-16T14:57:16;89.10;;;27.70;;
76552;SDS011;65395;53.168;18.156;2022-12-16T14:59:58;91.80;;;29.30;;
76552;SDS011;65395;53.168;18.156;2022-12-16T15:02:36;100.50;;;30.10;;
76552;SDS011;65395;53.168;18.156;2022-12-16T15:05:18;86.20;;;28.80;;
76552;SDS011;65395;53.168;18.156;2022-12-16T15:07:59;90.40;;;28.30;;
76552;SDS011;65395;53.168;18.156;2022-12-16T15:10:40;100.50;;;29.60;;
76552;SDS011;65395;53.168;18.156;2022-12-16T15:13:17;97.50;;;30.50;;
76552;SDS011;65395;53.168;18.156;2022-12-16T15:15:54;83.30;;;25.30;;
76552;SDS011;65395;53.168;18.156;2022-12-16T15:18:34;76.40;;;23.40;;
76552;SDS011;65395;53.168;18.156;2022-12-16T15:21:16;80.70;;;23.40;;
76552;SDS011;65395;53.168;18.156;2022-12-16T15:23:53;80.70;;;26.20;;
76552;SDS011;65395;53.168;18.156;2022-12-16T15:26:31;84.40;;;25.60;;
76552;SDS011;65395;53.168;18.156;2022-12-16T15:32:21;86.60;;;26.20;;
76552;SDS011;65395;53.168;18.156;2022-12-16T15:35:04;71.50;;;22.80;;
76552;SDS011;65395;53.168;18.156;2022-12-16T15:37:41;87.00;;;25.50;;
76552;SDS011;65395;53.168;18.156;2022-12-16T15:40:19;89.50;;;24.80;;
76552;SDS011;65395;53.168;18.156;2022-12-16T15:43:00;92.50;;;23.90;;
76552;SDS011;65395;53.168;18.156;2022-12-16T15:45:37;78.20;;;25.20;;
76552;SDS011;65395;53.168;18.156;2022-12-16T15:48:31;76.40;;;22.90;;
76552;SDS011;65395;53.168;18.156;2022-12-16T15:54:00;78.10;;;24.80;;
76552;SDS011;65395;53.168;18.156;2022-12-16T15:56:43;79.20;;;26.10;;
76552;SDS011;65395;53.168;18.156;2022-12-16T15:59:23;77.90;;;23.10;;
76552;SDS011;65395;53.168;18.156;2022-12-16T16:02:04;82.50;;;25.70;;
76552;SDS011;65395;53.168;18.156;2022-12-16T16:04:47;77.80;;;25.00;;
76552;SDS011;65395;53.168;18.156;2022-12-16T16:07:24;77.60;;;25.70;;
76552;SDS011;65395;53.168;18.156;2022-12-16T16:10:17;106.00;;;27.70;;
76552;SDS011;65395;53.168;18.156;2022-12-16T16:12:55;139.10;;;29.50;;
76552;SDS011;65395;53.168;18.156;2022-12-16T16:15:32;91.00;;;25.50;;
76552;SDS011;65395;53.168;18.156;2022-12-16T16:18:09;73.90;;;22.80;;
76552;SDS011;65395;53.168;18.156;2022-12-16T16:20:46;81.80;;;25.00;;